Time;durP1;ratioP1;P1;durP2;ratioP2;P2;SDS_P1;SDS_P2;PMS_P1;PMS_P2;Temp;Humidity;BMP_temperature;BMP_pressure;BME280_temperature;BME280_humidity;BME280_pressure;Samples;Min_cycle;Max_cycle;Signal;HPM_P1;HPM_P2
2024/01/20 00:01:57;;;;;;;26.77;10.55;;;2.10;99.90;;;;;;5062539;28;20033;-70
2024/01/20 00:04:23;;;;;;;23.73;9.75;;;2.10;99.90;;;;;;5062900;28;20045;-69
2024/01/20 00:06:48;;;;;;;24.48;11.05;;;2.10;99.90;;;;;;5059652;28;20025;-71
2024/01/20 00:09:15;;;;;;;29.50;13.13;;;2.10;99.90;;;;;;5061744;28;20037;-69
2024/01/20 00:11:41;;;;;;;28.38;10.98;;;2.00;99.90;;;;;;5062820;28;20028;-69
2024/01/20 00:14:07;;;;;;;28.10;12.77;;;2.00;99.90;;;;;;5061302;28;20037;-70
2024/01/20 00:16:32;;;;;;;26.75;13.70;;;2.00;99.90;;;;;;5062763;28;20029;-70
2024/01/20 00:18:58;;;;;;;28.27;13.93;;;2.00;99.90;;;;;;5062630;28;20025;-69
2024/01/20 00:21:23;;;;;;;26.38;12.10;;;1.90;99.90;;;;;;5061948;28;20063;-69
2024/01/20 00:23:49;;;;;;;23.00;12.10;;;1.90;99.90;;;;;;5060446;28;20056;-70
2024/01/20 00:26:15;;;;;;;23.55;11.30;;;1.90;99.90;;;;;;5061518;28;20094;-71
2024/01/20 00:28:40;;;;;;;27.77;14.23;;;1.90;99.90;;;;;;5061865;28;21477;-71
2024/01/20 00:31:06;;;;;;;30.75;14.30;;;1.90;99.90;;;;;;5062225;28;20048;-69
2024/01/20 00:33:32;;;;;;;32.83;14.73;;;1.90;99.90;;;;;;5062416;28;20044;-69
2024/01/20 00:35:57;;;;;;;27.63;14.25;;;1.90;99.90;;;;;;5062181;28;20025;-70
2024/01/20 00:38:25;;;;;;;34.13;14.35;;;1.90;99.90;;;;;;5061164;28;20029;-70
2024/01/20 00:40:50;;;;;;;32.13;15.27;;;1.90;99.90;;;;;;5061346;28;20021;-69
2024/01/20 00:43:16;;;;;;;31.40;13.90;;;1.90;99.90;;;;;;5062210;28;20029;-69
2024/01/20 00:45:42;;;;;;;39.20;16.30;;;1.80;99.90;;;;;;5061387;28;20104;-70
2024/01/20 00:48:07;;;;;;;28.08;13.88;;;1.80;99.90;;;;;;5061278;28;20041;-70
2024/01/20 00:50:33;;;;;;;35.10;15.00;;;1.80;99.90;;;;;;5061656;28;20068;-71
2024/01/20 00:52:58;;;;;;;38.15;16.90;;;1.80;99.90;;;;;;5061349;28;20066;-70
2024/01/20 00:55:24;;;;;;;37.50;18.25;;;1.80;99.90;;;;;;5062428;28;20064;-71
2024/01/20 00:57:49;;;;;;;32.05;15.60;;;1.80;99.90;;;;;;5061057;28;20496;-71
2024/01/20 01:00:15;;;;;;;35.00;16.98;;;1.90;99.90;;;;;;5063659;28;20160;-70
2024/01/20 01:02:41;;;;;;;34.97;15.77;;;1.90;99.90;;;;;;5064471;28;20493;-70
2024/01/20 01:05:07;;;;;;;36.92;15.88;;;1.90;99.90;;;;;;5065781;28;20072;-70
2024/01/20 01:07:34;;;;;;;32.75;13.77;;;1.90;99.90;;;;;;5065090;28;20033;-70
2024/01/20 01:09:59;;;;;;;29.27;13.48;;;1.90;99.90;;;;;;5065976;28;20037;-70
2024/01/20 01:12:25;;;;;;;33.25;17.00;;;1.90;99.90;;;;;;5066275;28;20059;-70
2024/01/20 01:14:50;;;;;;;30.25;14.68;;;1.90;99.90;;;;;;5065373;28;20032;-72
2024/01/20 01:17:16;;;;;;;34.47;16.05;;;1.90;99.90;;;;;;5065922;28;20017;-69
2024/01/20 01:19:43;;;;;;;42.97;17.33;;;1.90;99.90;;;;;;5066013;28;20489;-70
2024/01/20 01:22:08;;;;;;;30.58;14.55;;;1.90;99.90;;;;;;5064812;28;20033;-70
2024/01/20 01:24:34;;;;;;;42.83;17.80;;;1.80;99.90;;;;;;5065752;28;20372;-70
2024/01/20 01:27:00;;;;;;;37.03;16.20;;;1.80;99.90;;;;;;5064716;28;20104;-70
2024/01/20 01:29:26;;;;;;;37.95;16.75;;;1.80;99.90;;;;;;5064629;28;20701;-70
2024/01/20 01:31:51;;;;;;;43.13;18.13;;;1.90;99.90;;;;;;5064670;28;20112;-69
2024/01/20 01:34:17;;;;;;;34.95;16.38;;;1.80;99.90;;;;;;5064726;28;20393;-70
2024/01/20 01:36:43;;;;;;;37.47;16.75;;;1.80;99.90;;;;;;5066067;28;20048;-71
2024/01/20 01:39:09;;;;;;;37.83;18.92;;;1.80;99.90;;;;;;5064364;28;20052;-71
2024/01/20 01:41:35;;;;;;;41.45;18.98;;;1.80;99.90;;;;;;5064218;28;20040;-72
2024/01/20 01:44:01;;;;;;;33.90;16.40;;;1.80;99.90;;;;;;5064207;28;20048;-71
2024/01/20 01:46:27;;;;;;;37.38;18.45;;;1.80;99.90;;;;;;5065385;28;20025;-71
2024/01/20 01:48:53;;;;;;;41.33;19.20;;;1.80;99.90;;;;;;5065671;28;20045;-70
2024/01/20 01:51:18;;;;;;;37.58;18.70;;;1.80;99.90;;;;;;5065418;28;20139;-72
2024/01/20 01:53:44;;;;;;;34.75;16.67;;;1.80;99.90;;;;;;5065297;28;20029;-70
2024/01/20 01:56:11;;;;;;;42.50;19.38;;;1.80;99.90;;;;;;5064243;28;20068;-70
2024/01/20 01:58:36;;;;;;;40.38;18.67;;;1.80;99.90;;;;;;5064491;28;20381;-71
2024/01/20 02:01:02;;;;;;;37.75;18.23;;;1.70;99.90;;;;;;5064666;28;20041;-70
2024/01/20 02:03:27;;;;;;;34.42;15.05;;;1.70;99.90;;;;;;5063935;28;20029;-69
2024/01/20 02:05:53;;;;;;;40.10;18.33;;;1.60;99.90;;;;;;5063814;28;20049;-69
2024/01/20 02:08:24;;;;;;;44.38;20.25;;;1.60;99.90;;;;;;5064934;28;20048;-70
2024/01/20 02:10:50;;;;;;;42.85;20.38;;;1.60;99.90;;;;;;5063264;28;20032;-72
2024/01/20 02:13:16;;;;;;;45.25;21.30;;;1.60;99.90;;;;;;5064840;28;20025;-69
2024/01/20 02:15:41;;;;;;;42.05;21.80;;;1.60;99.90;;;;;;5065295;28;20478;-69
2024/01/20 02:18:07;;;;;;;43.40;19.42;;;1.60;99.90;;;;;;5064870;28;20025;-69
2024/01/20 02:20:33;;;;;;;40.95;22.58;;;1.60;99.90;;;;;;5062982;28;20029;-71
2024/01/20 02:22:59;;;;;;;45.55;21.83;;;1.50;99.90;;;;;;5064737;28;20401;-69
2024/01/20 02:25:24;;;;;;;50.33;23.30;;;1.50;99.90;;;;;;5064826;28;20021;-69
2024/01/20 02:27:50;;;;;;;47.00;23.80;;;1.50;99.90;;;;;;5064273;28;20037;-70
2024/01/20 02:30:16;;;;;;;47.40;23.52;;;1.60;99.90;;;;;;5065032;28;20021;-70
2024/01/20 02:32:42;;;;;;;52.10;24.85;;;1.40;99.90;;;;;;5063320;28;20021;-71
2024/01/20 02:35:08;;;;;;;47.13;23.00;;;1.50;99.90;;;;;;5064526;28;20021;-72
2024/01/20 02:37:34;;;;;;;46.20;25.05;;;1.40;99.90;;;;;;5064405;28;20095;-69
2024/01/20 02:39:59;;;;;;;49.45;24.15;;;1.40;99.90;;;;;;5064341;28;20844;-71
2024/01/20 02:42:25;;;;;;;56.58;27.15;;;1.60;99.90;;;;;;5064175;28;20025;-71
2024/01/20 02:44:50;;;;;;;53.45;26.65;;;1.40;99.90;;;;;;5062668;28;20016;-69
2024/01/20 02:47:17;;;;;;;54.10;25.75;;;1.50;99.90;;;;;;5064528;28;20036;-71
2024/01/20 02:49:43;;;;;;;49.70;24.70;;;1.40;99.90;;;;;;5061702;28;20041;-70
2024/01/20 02:52:08;;;;;;;50.00;26.00;;;1.40;99.90;;;;;;5064506;28;20084;-69
2024/01/20 02:54:34;;;;;;;50.60;22.13;;;1.40;99.90;;;;;;5064243;28;20082;-70
2024/01/20 02:56:59;;;;;;;53.15;25.65;;;1.40;99.90;;;;;;5062492;28;20029;-70
2024/01/20 02:59:25;;;;;;;54.38;26.48;;;1.40;99.90;;;;;;5063196;28;20032;-70
2024/01/20 03:01:50;;;;;;;52.55;27.40;;;1.40;99.90;;;;;;5062753;28;20025;-71
2024/01/20 03:04:16;;;;;;;55.83;26.63;;;1.40;99.90;;;;;;5063798;28;20056;-71
2024/01/20 03:06:43;;;;;;;57.90;27.90;;;1.40;99.90;;;;;;5060990;28;20017;-69
2024/01/20 03:09:08;;;;;;;54.35;26.40;;;1.30;99.90;;;;;;5063784;28;20045;-69
2024/01/20 03:11:35;;;;;;;60.47;27.90;;;1.30;99.90;;;;;;5063966;28;20051;-69
2024/01/20 03:14:01;;;;;;;55.80;27.42;;;1.30;99.90;;;;;;5062142;28;20029;-69
2024/01/20 03:16:26;;;;;;;51.25;28.27;;;1.30;99.90;;;;;;5063594;28;20070;-70
2024/01/20 03:18:52;;;;;;;68.25;28.55;;;1.20;99.90;;;;;;5063822;28;20021;-70
2024/01/20 03:21:17;;;;;;;55.97;28.30;;;1.20;99.90;;;;;;5062587;28;20138;-70
2024/01/20 03:23:43;;;;;;;60.53;28.10;;;1.20;99.90;;;;;;5062904;28;20097;-71
2024/01/20 03:26:10;;;;;;;53.30;25.05;;;1.20;99.90;;;;;;5063805;28;20017;-70
2024/01/20 03:28:36;;;;;;;52.88;26.67;;;1.20;99.90;;;;;;5062684;28;20051;-69
2024/01/20 03:31:02;;;;;;;61.45;27.88;;;1.20;99.90;;;;;;5061751;28;20029;-69
2024/01/20 03:33:27;;;;;;;49.63;24.10;;;1.20;99.90;;;;;;5061613;28;20033;-68
2024/01/20 03:35:53;;;;;;;62.08;27.73;;;1.20;99.90;;;;;;5063597;28;20033;-69
2024/01/20 03:38:19;;;;;;;58.80;26.35;;;1.20;99.90;;;;;;5063229;28;20032;-72
2024/01/20 03:40:45;;;;;;;56.03;29.20;;;1.20;99.90;;;;;;5063555;28;20017;-71
2024/01/20 03:43:11;;;;;;;56.55;28.13;;;1.20;99.90;;;;;;5063460;28;20025;-71
2024/01/20 03:45:42;;;;;;;43.00;21.33;;;1.20;99.90;;;;;;5061425;28;20070;-70
2024/01/20 03:48:07;;;;;;;53.10;23.83;;;1.10;99.90;;;;;;5062352;28;20063;-71
2024/01/20 03:50:33;;;;;;;59.95;27.90;;;1.20;99.90;;;;;;5062740;28;20025;-70
2024/01/20 03:52:59;;;;;;;51.42;24.45;;;1.20;99.90;;;;;;5062874;28;20025;-71
2024/01/20 03:55:24;;;;;;;55.15;27.35;;;1.10;99.90;;;;;;5063338;28;20474;-69
2024/01/20 03:57:50;;;;;;;56.17;27.52;;;1.20;99.90;;;;;;5061943;28;20029;-70
2024/01/20 04:00:16;;;;;;;60.20;28.60;;;1.20;99.90;;;;;;5063081;28;20470;-71
2024/01/20 04:02:41;;;;;;;59.20;26.83;;;1.10;99.90;;;;;;5063040;28;20029;-70
2024/01/20 04:05:07;;;;;;;64.15;28.23;;;1.10;99.90;;;;;;5062655;28;20049;-70
2024/01/20 04:07:33;;;;;;;56.47;28.17;;;1.10;99.90;;;;;;5062396;28;20033;-71
2024/01/20 04:09:59;;;;;;;60.45;27.23;;;1.10;99.90;;;;;;5061350;28;20498;-69
2024/01/20 04:12:25;;;;;;;61.78;27.77;;;1.10;99.90;;;;;;5061418;28;20032;-71
2024/01/20 04:14:50;;;;;;;54.15;27.73;;;1.00;99.90;;;;;;5062740;28;20021;-70
2024/01/20 04:17:16;;;;;;;61.75;29.00;;;1.00;99.90;;;;;;5062933;28;20036;-69
2024/01/20 04:19:42;;;;;;;57.95;24.52;;;1.00;99.90;;;;;;5061122;28;20104;-71
2024/01/20 04:22:07;;;;;;;63.13;27.33;;;1.00;99.90;;;;;;5062765;28;20079;-70
2024/01/20 04:24:33;;;;;;;65.95;28.33;;;1.00;99.90;;;;;;5060920;28;20462;-70
2024/01/20 04:26:58;;;;;;;58.42;28.63;;;0.90;99.90;;;;;;5060187;28;20029;-70
2024/01/20 04:29:24;;;;;;;51.70;24.73;;;1.00;99.90;;;;;;5061262;28;20033;-69
2024/01/20 04:31:49;;;;;;;51.53;25.48;;;0.90;99.90;;;;;;5060414;28;20025;-71
2024/01/20 04:34:15;;;;;;;59.75;27.42;;;0.90;99.90;;;;;;5062487;28;20025;-71
2024/01/20 04:36:41;;;;;;;55.08;26.90;;;0.90;99.90;;;;;;5060581;28;20758;-70
2024/01/20 04:39:06;;;;;;;55.55;26.35;;;0.90;99.90;;;;;;5059933;28;20043;-72
2024/01/20 04:41:32;;;;;;;55.03;29.35;;;0.90;99.90;;;;;;5061488;28;20071;-70
2024/01/20 04:43:57;;;;;;;57.53;26.40;;;0.90;99.90;;;;;;5062482;28;20025;-70
2024/01/20 04:46:23;;;;;;;61.25;27.33;;;0.80;99.90;;;;;;5061979;28;20021;-71
2024/01/20 04:48:48;;;;;;;64.03;30.48;;;0.90;99.90;;;;;;5061370;28;20048;-71
2024/01/20 04:51:14;;;;;;;55.75;27.55;;;0.90;99.90;;;;;;5062359;28;20032;-70
2024/01/20 04:53:40;;;;;;;67.63;25.20;;;0.90;99.90;;;;;;5060938;28;20025;-72
2024/01/20 04:56:06;;;;;;;63.72;29.58;;;0.80;99.90;;;;;;5061080;28;20017;-70
2024/01/20 04:58:32;;;;;;;66.63;29.90;;;0.80;99.90;;;;;;5062353;28;20014;-68
2024/01/20 05:00:58;;;;;;;59.25;28.80;;;0.80;99.90;;;;;;5054211;28;20025;-70
2024/01/20 05:03:23;;;;;;;52.13;27.67;;;0.80;99.90;;;;;;5051757;28;20032;-71
2024/01/20 05:05:49;;;;;;;59.70;28.30;;;0.80;99.90;;;;;;5056419;28;20141;-69
2024/01/20 05:08:14;;;;;;;63.97;29.48;;;0.80;99.90;;;;;;5057325;28;20051;-68
2024/01/20 05:10:40;;;;;;;63.35;30.40;;;0.80;99.90;;;;;;5060921;28;20029;-69
2024/01/20 05:13:06;;;;;;;65.25;30.08;;;0.80;99.90;;;;;;5056047;28;20057;-68
2024/01/20 05:15:31;;;;;;;60.38;27.27;;;0.70;99.90;;;;;;5061257;28;20025;-70
2024/01/20 05:17:57;;;;;;;55.45;23.38;;;0.70;99.90;;;;;;5059285;28;20035;-69
2024/01/20 05:20:23;;;;;;;65.30;29.67;;;0.80;99.90;;;;;;5058537;28;20031;-69
2024/01/20 05:22:49;;;;;;;68.93;29.85;;;0.70;99.90;;;;;;5060335;28;20033;-69
2024/01/20 05:25:14;;;;;;;63.92;27.60;;;0.70;99.90;;;;;;5057290;28;20067;-69
2024/01/20 05:27:40;;;;;;;61.20;28.17;;;0.70;99.90;;;;;;5058030;28;20055;-70
2024/01/20 05:30:07;;;;;;;65.38;30.27;;;0.70;99.90;;;;;;5060101;28;20090;-69
2024/01/20 05:32:33;;;;;;;62.88;28.95;;;0.70;99.90;;;;;;5061637;28;20030;-70
2024/01/20 05:34:59;;;;;;;64.93;27.63;;;0.70;99.90;;;;;;5061580;28;20027;-68
2024/01/20 05:37:24;;;;;;;60.63;27.67;;;0.70;99.90;;;;;;5058939;28;20111;-68
2024/01/20 05:39:51;;;;;;;67.68;29.65;;;0.70;99.90;;;;;;5061804;28;20024;-69
2024/01/20 05:42:17;;;;;;;73.65;29.27;;;0.70;99.90;;;;;;5060914;28;20064;-69
2024/01/20 05:44:43;;;;;;;62.63;24.60;;;0.70;99.90;;;;;;5061178;28;20032;-70
2024/01/20 05:47:09;;;;;;;76.70;30.60;;;0.70;99.90;;;;;;5063473;28;20025;-69
2024/01/20 05:49:34;;;;;;;65.72;30.17;;;0.70;99.90;;;;;;5063998;28;20068;-69
2024/01/20 05:52:00;;;;;;;62.47;27.58;;;0.70;99.90;;;;;;5065289;28;20052;-68
2024/01/20 05:54:26;;;;;;;65.72;27.98;;;0.70;99.90;;;;;;5065292;28;20029;-69
2024/01/20 05:56:51;;;;;;;71.70;27.65;;;0.70;99.90;;;;;;5063618;28;20033;-68
2024/01/20 05:59:17;;;;;;;65.80;29.30;;;0.70;99.90;;;;;;5064047;28;20492;-70
2024/01/20 06:01:42;;;;;;;51.00;21.77;;;0.70;99.90;;;;;;5063844;28;20107;-69
2024/01/20 06:04:08;;;;;;;75.28;30.63;;;0.60;99.90;;;;;;5063457;28;20075;-70
2024/01/20 06:06:34;;;;;;;64.22;28.02;;;0.60;99.90;;;;;;5064688;28;20050;-69
2024/01/20 06:08:59;;;;;;;78.75;29.42;;;0.60;99.90;;;;;;5064925;28;20508;-68
2024/01/20 06:11:25;;;;;;;69.00;29.63;;;0.60;99.90;;;;;;5061298;28;20061;-68
2024/01/20 06:13:51;;;;;;;68.05;26.90;;;0.60;99.90;;;;;;5063293;28;20049;-69
2024/01/20 06:16:16;;;;;;;78.40;30.65;;;0.60;99.90;;;;;;5064047;28;20029;-68
2024/01/20 06:18:42;;;;;;;72.40;30.27;;;0.60;99.90;;;;;;5061646;28;20037;-69
2024/01/20 06:21:08;;;;;;;80.63;30.90;;;0.60;99.90;;;;;;5062619;28;20033;-68
2024/01/20 06:23:34;;;;;;;65.35;25.35;;;0.60;99.90;;;;;;5061592;28;20033;-70
2024/01/20 06:25:59;;;;;;;67.18;27.40;;;0.60;99.90;;;;;;5064694;28;20506;-69
2024/01/20 06:28:26;;;;;;;70.07;27.77;;;0.60;99.90;;;;;;5064915;28;20048;-68
2024/01/20 06:30:52;;;;;;;70.88;30.27;;;0.50;99.90;;;;;;5063359;28;20029;-69
2024/01/20 06:33:17;;;;;;;70.57;27.17;;;0.50;99.90;;;;;;5063405;28;20037;-68
2024/01/20 06:35:43;;;;;;;72.88;26.65;;;0.50;99.90;;;;;;5064055;28;20062;-68
2024/01/20 06:38:09;;;;;;;74.20;26.67;;;0.50;99.90;;;;;;5061835;28;20033;-69
2024/01/20 06:40:35;;;;;;;70.15;26.13;;;0.50;99.90;;;;;;5062598;28;20048;-69
2024/01/20 06:43:00;;;;;;;58.53;21.80;;;0.50;99.90;;;;;;5063641;28;20048;-68
2024/01/20 06:45:30;;;;;;;68.18;23.70;;;0.50;99.90;;;;;;5062330;28;20049;-69
2024/01/20 06:47:56;;;;;;;59.55;22.67;;;0.50;99.90;;;;;;5062835;28;20025;-69
2024/01/20 06:50:21;;;;;;;69.72;23.92;;;0.50;99.90;;;;;;5063822;28;20067;-69
2024/01/20 06:52:47;;;;;;;74.93;27.15;;;0.50;99.90;;;;;;5062015;28;20109;-68
2024/01/20 06:55:12;;;;;;;69.68;26.20;;;0.50;99.90;;;;;;5061347;28;20163;-67
2024/01/20 06:57:38;;;;;;;77.35;26.13;;;0.50;99.90;;;;;;5061807;28;20072;-68
2024/01/20 07:00:08;;;;;;;71.55;27.23;;;0.50;99.90;;;;;;5062404;28;20036;-68
2024/01/20 07:02:34;;;;;;;70.72;26.13;;;0.50;99.90;;;;;;5062696;28;20493;-70
2024/01/20 07:05:00;;;;;;;77.47;25.60;;;0.50;99.90;;;;;;5063856;28;20108;-68
2024/01/20 07:07:25;;;;;;;65.53;24.98;;;0.50;99.90;;;;;;5062386;28;20025;-68
2024/01/20 07:09:51;;;;;;;64.82;25.05;;;0.60;99.90;;;;;;5062940;28;20037;-69
2024/01/20 07:12:16;;;;;;;73.95;23.98;;;0.60;99.90;;;;;;5062595;28;20021;-67
2024/01/20 07:14:43;;;;;;;75.75;27.58;;;0.60;99.90;;;;;;5062875;28;20055;-69
2024/01/20 07:17:09;;;;;;;72.15;26.83;;;0.60;99.90;;;;;;5063667;28;20025;-68
2024/01/20 07:19:34;;;;;;;60.60;22.05;;;0.60;99.90;;;;;;5063081;28;20061;-68
2024/01/20 07:22:00;;;;;;;67.30;24.73;;;0.60;99.90;;;;;;5063544;28;20025;-70
2024/01/20 07:24:27;;;;;;;65.20;22.10;;;0.60;99.90;;;;;;5063851;28;20363;-68
2024/01/20 07:26:53;;;;;;;70.90;26.90;;;0.60;99.90;;;;;;5062193;28;20054;-68
2024/01/20 07:29:19;;;;;;;65.97;24.27;;;0.60;99.90;;;;;;5062797;28;20405;-68
2024/01/20 07:31:44;;;;;;;70.13;24.45;;;0.60;99.90;;;;;;5063238;28;20036;-70
2024/01/20 07:34:10;;;;;;;61.03;18.85;;;0.60;99.90;;;;;;5062238;28;20029;-70
2024/01/20 07:36:35;;;;;;;71.93;24.30;;;0.60;99.90;;;;;;5062948;28;20028;-68
2024/01/20 07:39:01;;;;;;;72.10;25.02;;;0.70;99.90;;;;;;5062416;28;20017;-68
2024/01/20 07:41:26;;;;;;;63.63;25.38;;;0.70;99.90;;;;;;5059529;28;20040;-68
2024/01/20 07:43:52;;;;;;;67.35;22.75;;;0.70;99.90;;;;;;5057234;28;20506;-69
2024/01/20 07:46:17;;;;;;;66.60;25.25;;;0.60;99.90;;;;;;5059451;28;20064;-68
2024/01/20 07:48:43;;;;;;;67.95;23.10;;;0.70;99.90;;;;;;5059321;28;20047;-68
2024/01/20 07:51:08;;;;;;;72.97;26.13;;;0.70;99.90;;;;;;5057109;28;20018;-68
2024/01/20 07:53:34;;;;;;;65.10;21.67;;;0.70;99.90;;;;;;5059502;28;20021;-68
2024/01/20 07:55:59;;;;;;;71.47;25.13;;;0.70;99.90;;;;;;5059760;28;20017;-67
2024/01/20 07:58:25;;;;;;;72.43;24.02;;;0.70;99.90;;;;;;5059124;28;20031;-68
2024/01/20 08:00:51;;;;;;;65.85;21.88;;;0.70;99.90;;;;;;5058213;28;20041;-68
2024/01/20 08:03:16;;;;;;;72.70;24.30;;;0.80;99.90;;;;;;5057319;28;20043;-68
2024/01/20 08:05:42;;;;;;;73.85;26.38;;;0.90;99.90;;;;;;5055109;28;20056;-68
2024/01/20 08:08:07;;;;;;;65.05;24.67;;;1.00;99.90;;;;;;5059214;28;20410;-68
2024/01/20 08:10:33;;;;;;;72.28;23.65;;;1.10;99.90;;;;;;5055870;28;20035;-68
2024/01/20 08:12:58;;;;;;;67.07;25.27;;;1.20;99.90;;;;;;5059994;28;20465;-67
2024/01/20 08:15:24;;;;;;;62.58;26.17;;;1.30;99.90;;;;;;5061337;28;20036;-67
2024/01/20 08:17:50;;;;;;;58.53;23.15;;;1.40;99.90;;;;;;5062521;28;20039;-66
2024/01/20 08:20:15;;;;;;;64.68;24.38;;;1.50;99.90;;;;;;5060262;28;20036;-69
2024/01/20 08:22:41;;;;;;;63.17;23.40;;;1.60;99.90;;;;;;5057597;28;20056;-68
2024/01/20 08:25:07;;;;;;;52.90;19.65;;;1.70;99.90;;;;;;5061752;28;20025;-70
2024/01/20 08:27:32;;;;;;;56.58;21.70;;;1.80;99.90;;;;;;5061829;28;20822;-68
2024/01/20 08:29:58;;;;;;;44.47;16.00;;;1.80;99.90;;;;;;5059662;28;20107;-68
2024/01/20 08:32:23;;;;;;;53.40;19.40;;;1.70;99.90;;;;;;5059476;28;20039;-68
2024/01/20 08:34:49;;;;;;;54.17;19.70;;;1.80;99.90;;;;;;5057853;28;20024;-67
2024/01/20 08:37:14;;;;;;;59.58;21.42;;;1.90;99.90;;;;;;5057569;28;20059;-67
2024/01/20 08:39:40;;;;;;;52.65;19.52;;;2.10;99.90;;;;;;5058190;28;20021;-69
2024/01/20 08:42:05;;;;;;;48.88;18.80;;;2.30;99.90;;;;;;5061927;28;20481;-68
2024/01/20 08:44:32;;;;;;;52.17;19.73;;;2.60;99.90;;;;;;5061354;28;20035;-66
2024/01/20 08:46:58;;;;;;;49.28;19.70;;;2.80;99.90;;;;;;5059123;28;20047;-67
2024/01/20 08:49:24;;;;;;;51.13;20.20;;;2.90;99.90;;;;;;5060416;28;20064;-68
2024/01/20 08:51:49;;;;;;;56.40;18.27;;;3.10;99.90;;;;;;5061954;28;20017;-68
2024/01/20 08:54:16;;;;;;;42.30;17.00;;;3.20;99.90;;;;;;5062254;28;20470;-68
2024/01/20 08:56:41;;;;;;;49.40;18.95;;;3.40;99.90;;;;;;5061394;28;20063;-69
2024/01/20 08:59:07;;;;;;;46.42;18.30;;;3.50;99.90;;;;;;5058679;28;20021;-68
2024/01/20 09:01:33;;;;;;;47.67;18.80;;;3.40;99.90;;;;;;5060345;28;20047;-69
2024/01/20 09:04:00;;;;;;;57.83;19.30;;;3.30;99.90;;;;;;5058598;28;20068;-68
2024/01/20 09:06:25;;;;;;;45.92;18.77;;;3.40;99.90;;;;;;5059522;28;20084;-68
2024/01/20 09:08:51;;;;;;;45.45;18.40;;;3.50;99.90;;;;;;5055392;28;20081;-69
2024/01/20 09:11:17;;;;;;;35.13;12.77;;;3.70;99.90;;;;;;5045840;28;20033;-69
2024/01/20 09:13:44;;;;;;;44.92;18.52;;;3.80;99.90;;;;;;5048084;28;20045;-68
2024/01/20 09:16:09;;;;;;;39.72;17.02;;;3.90;99.90;;;;;;5059585;28;20100;-68
2024/01/20 09:18:35;;;;;;;47.95;17.48;;;3.80;99.90;;;;;;5059100;28;20072;-68
2024/01/20 09:21:00;;;;;;;47.97;17.42;;;3.80;99.90;;;;;;5061613;28;20029;-68
2024/01/20 09:23:26;;;;;;;51.90;17.75;;;3.80;99.90;;;;;;5065209;28;20025;-68
2024/01/20 09:25:51;;;;;;;46.78;18.23;;;3.70;99.90;;;;;;5062450;28;20029;-69
2024/01/20 09:28:17;;;;;;;49.10;16.67;;;3.60;99.90;;;;;;5061620;28;20444;-69
2024/01/20 09:30:43;;;;;;;43.25;16.33;;;3.60;99.90;;;;;;5064361;28;20041;-68
2024/01/20 09:33:08;;;;;;;43.08;18.40;;;3.50;99.90;;;;;;5062459;28;20032;-68
2024/01/20 09:35:34;;;;;;;48.20;17.55;;;3.40;99.90;;;;;;5065797;28;20052;-68
2024/01/20 09:37:59;;;;;;;44.83;17.63;;;3.50;99.90;;;;;;5063824;28;20045;-67
2024/01/20 09:40:25;;;;;;;45.70;15.65;;;3.50;99.90;;;;;;5064218;28;20044;-68
2024/01/20 09:42:51;;;;;;;41.38;17.17;;;3.50;99.90;;;;;;5060350;28;20021;-68
2024/01/20 09:45:18;;;;;;;44.13;17.70;;;3.70;99.90;;;;;;5062838;28;20060;-68
2024/01/20 09:47:44;;;;;;;41.92;16.40;;;3.90;99.90;;;;;;5063385;28;20025;-65
2024/01/20 09:50:10;;;;;;;41.25;15.68;;;4.00;99.90;;;;;;5063651;28;20043;-67
2024/01/20 09:53:01;;;;;;;39.70;16.50;;;4.10;99.90;;;;;;5057000;28;20052;-67
2024/01/20 09:55:27;;;;;;;42.55;16.05;;;4.20;99.90;;;;;;5059774;28;20049;-67
2024/01/20 09:57:54;;;;;;;43.90;17.13;;;4.30;99.90;;;;;;5063748;28;20033;-66
2024/01/20 10:00:22;;;;;;;42.75;16.92;;;4.50;99.90;;;;;;5061727;28;20032;-66
2024/01/20 10:02:47;;;;;;;40.63;15.90;;;4.70;99.90;;;;;;5054492;28;20036;-68
2024/01/20 10:05:14;;;;;;;36.80;14.48;;;4.80;99.90;;;;;;5063510;28;20065;-67
2024/01/20 10:07:40;;;;;;;37.83;15.45;;;4.90;99.90;;;;;;5061407;28;20089;-67
2024/01/20 10:10:07;;;;;;;37.83;14.00;;;5.00;99.90;;;;;;5064291;28;20033;-66
2024/01/20 10:12:33;;;;;;;39.83;16.05;;;5.00;99.90;;;;;;5062578;28;20025;-67
2024/01/20 10:14:59;;;;;;;42.97;14.00;;;5.20;99.90;;;;;;5063551;28;20013;-66
2024/01/20 10:17:24;;;;;;;39.40;15.32;;;5.30;99.90;;;;;;5061182;28;20032;-65
2024/01/20 10:19:50;;;;;;;36.20;15.32;;;5.50;99.90;;;;;;5063996;28;20502;-67
2024/01/20 10:22:16;;;;;;;32.38;13.05;;;5.50;99.90;;;;;;5061889;28;20466;-67
2024/01/20 10:24:52;;;;;;;38.60;16.27;;;5.50;99.90;;;;;;5063594;28;20054;-67
2024/01/20 10:27:18;;;;;;;41.17;16.25;;;5.50;99.90;;;;;;5063887;28;20032;-68
2024/01/20 10:29:48;;;;;;;38.28;15.07;;;5.40;99.90;;;;;;5063272;28;20049;-67
2024/01/20 10:32:14;;;;;;;41.28;16.50;;;5.20;99.90;;;;;;5061759;28;20046;-67
2024/01/20 10:34:40;;;;;;;42.30;16.52;;;5.10;99.90;;;;;;5062281;28;20036;-69
2024/01/20 10:37:12;;;;;;;41.10;17.08;;;4.90;99.90;;;;;;5062950;28;20043;-67
2024/01/20 10:39:44;;;;;;;35.97;16.65;;;5.10;99.90;;;;;;5063848;28;20025;-67
2024/01/20 10:42:14;;;;;;;36.95;15.13;;;5.10;99.90;;;;;;5064040;28;20032;-69
2024/01/20 10:45:06;;;;;;;37.97;15.32;;;5.20;99.90;;;;;;5064911;28;20047;-66
2024/01/20 10:47:44;;;;;;;44.33;17.95;;;5.30;99.90;;;;;;5064157;28;20090;-67
2024/01/20 10:50:10;;;;;;;45.50;18.98;;;5.40;99.90;;;;;;5063091;28;20048;-67
2024/01/20 10:52:36;;;;;;;48.08;18.27;;;5.60;99.90;;;;;;5063109;28;20033;-67
2024/01/20 10:55:04;;;;;;;40.15;17.70;;;5.60;99.90;;;;;;5064067;28;20116;-67
2024/01/20 10:57:31;;;;;;;42.72;17.52;;;5.70;99.90;;;;;;5063774;28;20723;-68
2024/01/20 10:59:58;;;;;;;37.22;15.68;;;5.90;99.90;;;;;;5064280;28;20024;-67
2024/01/20 11:02:25;;;;;;;39.58;17.00;;;5.90;99.90;;;;;;5063380;28;20059;-67
2024/01/20 11:04:51;;;;;;;42.17;18.35;;;5.70;99.90;;;;;;5064108;28;20045;-68
2024/01/20 11:07:23;;;;;;;38.40;17.80;;;5.70;99.90;;;;;;5064299;28;20675;-68
2024/01/20 11:09:59;;;;;;;47.50;17.20;;;5.60;99.90;;;;;;5063623;28;20033;-68
2024/01/20 11:12:27;;;;;;;37.85;17.70;;;5.50;99.90;;;;;;5064032;28;20059;-68
2024/01/20 11:14:54;;;;;;;45.38;16.63;;;5.40;99.90;;;;;;5063739;28;20021;-67
2024/01/20 11:17:21;;;;;;;43.97;18.05;;;5.60;99.90;;;;;;5063392;28;20053;-67
2024/01/20 11:19:47;;;;;;;37.60;17.63;;;5.80;99.90;;;;;;5063981;28;20023;-68
2024/01/20 11:22:34;;;;;;;35.70;16.80;;;6.10;99.90;;;;;;5063705;28;20029;-67
2024/01/20 11:25:04;;;;;;;41.38;18.63;;;6.50;99.90;;;;;;5063114;28;20041;-67
2024/01/20 11:27:30;;;;;;;40.20;17.92;;;6.70;99.90;;;;;;5063421;28;20025;-68
2024/01/20 11:30:07;;;;;;;36.88;15.82;;;6.80;99.90;;;;;;5057147;28;20045;-69
2024/01/20 11:32:33;;;;;;;38.63;17.45;;;7.00;99.90;;;;;;5049350;28;20079;-68
2024/01/20 11:35:00;;;;;;;38.22;17.05;;;7.00;99.90;;;;;;5054734;28;20112;-66
2024/01/20 11:37:30;;;;;;;38.03;17.67;;;6.90;99.90;;;;;;5057298;28;20024;-67
2024/01/20 11:40:04;;;;;;;35.40;15.57;;;6.90;99.90;;;;;;5061774;28;20040;-67
2024/01/20 11:42:31;;;;;;;39.55;16.85;;;7.00;99.90;;;;;;5061821;28;20033;-67
2024/01/20 11:44:56;;;;;;;30.73;12.13;;;7.30;99.90;;;;;;5059853;28;20027;-68
2024/01/20 11:47:22;;;;;;;36.78;14.65;;;7.50;99.90;;;;;;5060692;28;20107;-66
2024/01/20 11:49:47;;;;;;;37.80;18.50;;;7.50;99.90;;;;;;5056710;28;20037;-67
2024/01/20 11:52:13;;;;;;;37.03;17.58;;;7.70;99.90;;;;;;5059778;28;20037;-67
2024/01/20 11:54:39;;;;;;;32.40;16.63;;;7.90;99.90;;;;;;5061861;28;20045;-68
2024/01/20 11:57:05;;;;;;;36.05;17.40;;;8.20;99.90;;;;;;5060445;28;20024;-69
2024/01/20 11:59:31;;;;;;;38.35;16.27;;;8.30;99.90;;;;;;5061619;28;20024;-67
2024/01/20 12:01:56;;;;;;;35.45;17.17;;;8.30;99.90;;;;;;5060488;28;20041;-67
2024/01/20 12:04:22;;;;;;;41.00;17.27;;;8.00;99.90;;;;;;5060987;28;20040;-66
2024/01/20 12:06:48;;;;;;;37.45;16.90;;;7.70;99.90;;;;;;5061124;28;20033;-68
2024/01/20 12:09:15;;;;;;;34.90;17.02;;;7.40;99.90;;;;;;5060129;28;20052;-68
2024/01/20 12:11:41;;;;;;;35.75;16.98;;;7.30;99.90;;;;;;5060689;28;20120;-67
2024/01/20 12:14:08;;;;;;;37.22;16.02;;;7.20;99.90;;;;;;5058545;28;20060;-67
2024/01/20 12:16:34;;;;;;;34.05;16.52;;;6.70;99.90;;;;;;5058710;28;20032;-67
2024/01/20 12:19:00;;;;;;;42.30;17.15;;;6.30;99.90;;;;;;5055800;28;20032;-66
2024/01/20 12:21:27;;;;;;;31.75;12.85;;;6.10;99.90;;;;;;5059915;28;20060;-65
2024/01/20 12:23:53;;;;;;;33.67;16.85;;;6.20;99.90;;;;;;5057148;28;20024;-68
2024/01/20 12:26:19;;;;;;;35.55;15.65;;;6.50;99.90;;;;;;5056278;28;20025;-68
2024/01/20 12:28:46;;;;;;;41.83;17.77;;;6.40;99.90;;;;;;5059905;28;20070;-66
2024/01/20 12:31:12;;;;;;;34.10;16.08;;;6.50;99.90;;;;;;5060859;28;20032;-65